createdAt,value
2022-08-05T00:01:36.145Z,97283.66
2022-08-05T00:04:17.962Z,97292.28
2022-08-05T00:06:51.565Z,97292.19
2022-08-05T00:09:21.821Z,97285.38
2022-08-05T00:11:56.136Z,97289.44
2022-08-05T00:14:29.449Z,97289.34
2022-08-05T00:17:02.105Z,97285.50
2022-08-05T00:19:33.551Z,97284.34
2022-08-05T00:22:11.428Z,97289.69
2022-08-05T00:24:42.403Z,97289.09
2022-08-05T00:27:16.579Z,97291.72
2022-08-05T00:29:45.297Z,97286.78
2022-08-05T00:32:15.285Z,97271.81
2022-08-05T00:35:04.856Z,97270.09
2022-08-05T00:37:53.316Z,97274.94
2022-08-05T00:40:29.017Z,97272.38
2022-08-05T00:43:01.556Z,97269.59
2022-08-05T00:45:43.523Z,97269.03
2022-08-05T00:48:13.811Z,97264.09
2022-08-05T00:50:46.032Z,97270.84
2022-08-05T00:53:59.797Z,97262.38
2022-08-05T00:56:07.886Z,97269.34
2022-08-05T00:58:36.853Z,97265.22
2022-08-05T01:01:08.896Z,97273.84
2022-08-05T01:03:38.234Z,97270.00
2022-08-05T01:06:14.005Z,97268.34
2022-08-05T01:08:44.803Z,97259.88
2022-08-05T01:11:33.532Z,97265.16
2022-08-05T01:14:15.362Z,97254.50
2022-08-05T01:16:50.714Z,97255.22
2022-08-05T01:20:01.853Z,97257.34
2022-08-05T01:22:46.977Z,97256.44
2022-08-05T01:25:53.210Z,97253.63
2022-08-05T01:28:39.514Z,97256.56
2022-08-05T01:31:13.855Z,97261.44
2022-08-05T01:33:52.006Z,97264.63
2022-08-05T01:36:27.917Z,97262.97
2022-08-05T01:39:00.372Z,97266.97
2022-08-05T01:41:35.151Z,97259.34
2022-08-05T01:44:09.956Z,97262.78
2022-08-05T01:49:24.075Z,97266.19
2022-08-05T01:51:58.718Z,97249.59
2022-08-05T01:54:32.958Z,97250.91
2022-08-05T01:58:11.440Z,97259.28
2022-08-05T01:59:54.212Z,97251.88
2022-08-05T02:02:28.378Z,97246.06
2022-08-05T02:05:01.716Z,97244.94
2022-08-05T02:07:32.289Z,97251.66
2022-08-05T02:10:03.085Z,97250.25
2022-08-05T02:12:40.351Z,97260.97
2022-08-05T02:15:15.613Z,97259.56
2022-08-05T02:18:32.282Z,97256.50
2022-08-05T02:20:49.535Z,97254.28
2022-08-05T02:23:24.776Z,97251.44
2022-08-05T02:25:54.983Z,97247.69
2022-08-05T02:28:32.150Z,97252.75
2022-08-05T02:31:14.476Z,97252.41
2022-08-05T02:33:57.284Z,97248.28
2022-08-05T02:36:31.237Z,97248.53
2022-08-05T02:39:04.577Z,97246.31
2022-08-05T02:41:58.199Z,97244.06
2022-08-05T02:44:28.388Z,97244.31
2022-08-05T02:47:00.878Z,97248.09
2022-08-05T02:49:37.732Z,97245.63
2022-08-05T02:52:13.533Z,97246.09
2022-08-05T02:54:55.951Z,97246.56
2022-08-05T02:58:10.619Z,97242.69
2022-08-05T03:00:15.516Z,97241.84
2022-08-05T03:02:48.031Z,97248.34
2022-08-05T03:05:17.503Z,97246.91
2022-08-05T03:08:04.526Z,97249.38
2022-08-05T03:10:37.135Z,97249.00
2022-08-05T03:13:16.813Z,97244.88
2022-08-05T03:15:46.029Z,97245.34
2022-08-05T03:18:17.335Z,97246.41
2022-08-05T03:20:48.748Z,97241.25
2022-08-05T03:23:18.870Z,97247.97
2022-08-05T03:26:30.354Z,97246.53
2022-08-05T03:28:41.019Z,97243.13
2022-08-05T03:31:10.217Z,97248.53
2022-08-05T03:33:51.032Z,97236.56
2022-08-05T03:36:30.171Z,97238.66
2022-08-05T03:38:59.552Z,97244.06
2022-08-05T03:41:33.164Z,97247.84
2022-08-05T03:44:11.628Z,97234.78
2022-08-05T03:46:40.456Z,97239.81
2022-08-05T03:49:10.511Z,97238.66
2022-08-05T03:52:50.308Z,97241.34
2022-08-05T03:55:50.693Z,97238.28
2022-08-05T03:57:41.855Z,97234.41
2022-08-05T04:00:16.002Z,97237.34
2022-08-05T04:02:51.967Z,97240.28
2022-08-05T04:05:23.188Z,97244.06
2022-08-05T04:07:58.562Z,97238.06
2022-08-05T04:10:32.140Z,97231.47
2022-08-05T04:13:07.602Z,97241.44
2022-08-05T04:15:36.821Z,97230.88
2022-08-05T04:18:09.259Z,97229.25
2022-08-05T04:20:41.285Z,97227.56
2022-08-05T04:23:12.523Z,97228.63
2022-08-05T04:26:00.413Z,97226.16
2022-08-05T04:28:30.897Z,97231.56
2022-08-05T04:31:01.479Z,97220.75
2022-08-05T04:34:17.302Z,97231.34
2022-08-05T04:36:49.431Z,97234.66
2022-08-05T04:39:09.630Z,97236.50
2022-08-05T04:41:39.830Z,97239.22
2022-08-05T04:44:09.964Z,97241.69
2022-08-05T04:46:39.223Z,97245.78
2022-08-05T04:49:12.438Z,97243.44
2022-08-05T04:51:45.362Z,97247.56
2022-08-05T04:54:14.932Z,97245.47
2022-08-05T04:56:43.859Z,97250.41
2022-08-05T04:59:21.884Z,97243.69
2022-08-05T05:02:07.947Z,97247.00
2022-08-05T05:04:44.143Z,97253.81
2022-08-05T05:07:18.384Z,97250.63
2022-08-05T05:09:57.598Z,97258.03
2022-08-05T05:12:27.394Z,97257.34
2022-08-05T05:14:56.565Z,97257.72
2022-08-05T05:17:57.128Z,97261.56
2022-08-05T05:20:15.215Z,97250.06
2022-08-05T05:22:50.350Z,97253.13
2022-08-05T05:25:18.764Z,97251.59
2022-08-05T05:27:48.545Z,97258.16
2022-08-05T05:30:29.358Z,97252.91
2022-08-05T05:33:09.069Z,97246.56
2022-08-05T05:35:46.874Z,97249.63
2022-08-05T05:38:22.482Z,97256.75
2022-08-05T05:40:57.076Z,97253.94
2022-08-05T05:43:57.548Z,97252.75
2022-08-05T05:46:17.483Z,97258.38
2022-08-05T05:48:48.558Z,97273.41
2022-08-05T05:51:27.822Z,97274.94
2022-08-05T05:53:59.905Z,97274.81
2022-08-05T05:56:33.255Z,97270.94
2022-08-05T05:59:05.298Z,97275.97
2022-08-05T06:01:37.406Z,97283.47
2022-08-05T06:04:11.528Z,97284.97
2022-08-05T06:06:42.588Z,97305.19
2022-08-05T06:09:16.789Z,97306.22
2022-08-05T06:12:01.401Z,97291.81
2022-08-05T06:14:31.138Z,97281.16
2022-08-05T06:17:02.179Z,97295.47
2022-08-05T06:19:56.566Z,97283.47
2022-08-05T06:22:29.488Z,97274.22
2022-08-05T06:24:59.499Z,97283.88
2022-08-05T06:28:11.284Z,97280.06
2022-08-05T06:30:19.953Z,97280.28
2022-08-05T06:32:50.623Z,97288.06
2022-08-05T06:36:04.002Z,97288.28
2022-08-05T06:38:11.332Z,97301.53
2022-08-05T06:40:44.295Z,97296.78
2022-08-05T06:43:57.743Z,97295.34
2022-08-05T06:46:03.977Z,97294.97
2022-08-05T06:48:56.298Z,97283.47
2022-08-05T06:51:30.058Z,97286.09
2022-08-05T06:53:59.896Z,97285.16
2022-08-05T06:56:30.389Z,97289.13
2022-08-05T06:59:03.256Z,97283.84
2022-08-05T07:01:32.940Z,97269.81
2022-08-05T07:04:03.171Z,97277.25
2022-08-05T07:06:32.185Z,97279.81
2022-08-05T07:09:04.160Z,97282.94
2022-08-05T07:11:36.765Z,97290.09
2022-08-05T07:14:29.951Z,97287.47
2022-08-05T07:18:02.209Z,97293.31
2022-08-05T07:22:42.569Z,97272.47
2022-08-05T07:25:54.068Z,97276.63
2022-08-05T07:28:05.841Z,97278.56
2022-08-05T07:30:39.997Z,97280.75
2022-08-05T07:33:16.467Z,97278.88
2022-08-05T07:36:02.653Z,97283.22
2022-08-05T07:38:43.121Z,97281.03
2022-08-05T07:42:09.015Z,97277.44
2022-08-05T07:44:14.197Z,97285.38
2022-08-05T07:46:49.641Z,97281.78
2022-08-05T07:49:19.448Z,97273.78
2022-08-05T07:51:52.994Z,97275.66
2022-08-05T07:54:31.699Z,97271.53
2022-08-05T07:57:13.993Z,97279.09
2022-08-05T07:59:53.717Z,97271.94
2022-08-05T08:02:31.392Z,97279.53
2022-08-05T08:05:15.310Z,97271.75
2022-08-05T08:08:00.256Z,97275.75
2022-08-05T08:10:29.537Z,97275.63
2022-08-05T08:12:58.964Z,97281.00
2022-08-05T08:16:33.404Z,97277.31
2022-08-05T08:18:20.841Z,97286.78
2022-08-05T08:21:01.907Z,97290.78
2022-08-05T08:24:01.327Z,97291.72
2022-08-05T08:26:26.915Z,97294.00
2022-08-05T08:29:21.499Z,97304.28
2022-08-05T08:31:49.490Z,97319.28
2022-08-05T08:34:18.577Z,97322.66
2022-08-05T08:36:50.554Z,97333.28
2022-08-05T08:39:24.684Z,97343.75
2022-08-05T08:41:59.832Z,97352.41
2022-08-05T08:45:16.431Z,97349.28
2022-08-05T08:48:07.620Z,97348.56
2022-08-05T08:50:30.365Z,97344.56
2022-08-05T08:53:07.907Z,97350.44
2022-08-05T08:56:02.948Z,97350.50
2022-08-05T08:58:37.458Z,97349.75
2022-08-05T09:01:15.776Z,97345.94
2022-08-05T09:03:54.458Z,97343.56
2022-08-05T09:06:28.127Z,97345.72
2022-08-05T09:09:00.023Z,97345.13
2022-08-05T09:11:51.393Z,97350.38
2022-08-05T09:14:57.544Z,97344.66
2022-08-05T09:17:09.510Z,97354.88
2022-08-05T09:19:55.417Z,97361.81
2022-08-05T09:22:31.850Z,97364.38
2022-08-05T09:25:13.922Z,97363.63
2022-08-05T09:28:05.874Z,97361.78
2022-08-05T09:30:35.715Z,97358.81
2022-08-05T09:33:07.512Z,97367.38
2022-08-05T09:35:37.755Z,97359.53
2022-08-05T09:38:12.035Z,97358.78
2022-08-05T09:40:52.441Z,97356.59
2022-08-05T09:43:40.857Z,97357.16
2022-08-05T09:46:28.301Z,97359.69
2022-08-05T09:49:07.168Z,97351.38
2022-08-05T09:51:49.907Z,97345.59
2022-08-05T09:54:31.188Z,97351.97
2022-08-05T09:57:01.717Z,97351.75
2022-08-05T09:59:36.947Z,97356.69
2022-08-05T10:02:07.087Z,97355.44
2022-08-05T10:04:41.062Z,97358.56
2022-08-05T10:07:20.098Z,97364.16
2022-08-05T10:10:14.339Z,97362.72
2022-08-05T10:12:50.433Z,97353.66
2022-08-05T10:15:26.187Z,97364.22
2022-08-05T10:18:16.662Z,97355.63
2022-08-05T10:20:48.593Z,97367.16
2022-08-05T10:23:55.828Z,97351.25
2022-08-05T10:26:14.409Z,97349.50
2022-08-05T10:28:45.049Z,97350.38
2022-08-05T10:32:52.644Z,97352.63
2022-08-05T10:34:07.139Z,97363.72
2022-08-05T10:36:38.264Z,97366.81
2022-08-05T10:39:24.889Z,97373.81
2022-08-05T10:42:11.357Z,97378.03
2022-08-05T10:44:45.071Z,97372.88
2022-08-05T10:47:26.457Z,97376.78
2022-08-05T10:50:20.754Z,97374.31
2022-08-05T10:52:58.569Z,97377.09
2022-08-05T10:55:32.717Z,97376.44
2022-08-05T10:58:11.713Z,97371.56
2022-08-05T11:00:48.424Z,97370.75
2022-08-05T11:03:26.861Z,97373.53
2022-08-05T11:06:15.196Z,97370.25
2022-08-05T11:09:16.336Z,97365.38
2022-08-05T11:11:53.544Z,97360.97
2022-08-05T11:15:01.193Z,97364.38
2022-08-05T11:17:56.871Z,97370.22
2022-08-05T11:20:44.143Z,97364.38
2022-08-05T11:24:05.660Z,97371.34
2022-08-05T11:26:43.337Z,97370.53
2022-08-05T11:29:37.604Z,97370.19
2022-08-05T11:32:28.433Z,97376.50
2022-08-05T11:34:58.318Z,97371.09
2022-08-05T11:38:30.793Z,97390.47
2022-08-05T11:41:35.426Z,97383.00
2022-08-05T11:44:05.933Z,97380.72
2022-08-05T11:46:58.134Z,97387.38
2022-08-05T11:49:29.098Z,97380.41
2022-08-05T11:52:08.716Z,97387.38
2022-08-05T11:54:41.519Z,97376.13
2022-08-05T11:57:25.230Z,97380.50
2022-08-05T11:59:56.339Z,97373.97
2022-08-05T12:02:33.424Z,97373.94
2022-08-05T12:05:08.122Z,97366.88
2022-08-05T12:08:07.900Z,97375.66
2022-08-05T12:10:46.120Z,97365.75
2022-08-05T12:13:28.187Z,97369.31
2022-08-05T12:16:14.580Z,97373.38
2022-08-05T12:18:49.384Z,97369.78
2022-08-05T12:21:24.852Z,97378.59
2022-08-05T12:23:59.951Z,97369.63
2022-08-05T12:26:34.221Z,97363.63
2022-08-05T12:29:03.211Z,97360.38
2022-08-05T12:31:47.680Z,97365.75
2022-08-05T12:34:23.547Z,97360.09
2022-08-05T12:36:54.285Z,97360.88
2022-08-05T12:39:28.140Z,97362.88
2022-08-05T12:42:14.419Z,97365.16
2022-08-05T12:44:45.696Z,97357.34
2022-08-05T12:47:17.193Z,97356.34
2022-08-05T12:50:04.560Z,97356.78
2022-08-05T12:52:39.293Z,97355.31
2022-08-05T12:55:25.392Z,97354.16
2022-08-05T12:58:50.632Z,97345.34
2022-08-05T13:02:04.266Z,97344.38
2022-08-05T13:03:41.810Z,97331.91
2022-08-05T13:06:16.355Z,97341.19
2022-08-05T13:08:50.892Z,97337.75
2022-08-05T13:11:59.634Z,97337.41
2022-08-05T13:14:25.104Z,97337.53
2022-08-05T13:17:10.697Z,97322.66
2022-08-05T13:19:51.043Z,97328.94
2022-08-05T13:22:28.155Z,97325.38
2022-08-05T13:25:05.822Z,97323.75
2022-08-05T13:27:39.695Z,97322.97
2022-08-05T13:30:34.138Z,97315.91
2022-08-05T13:33:01.488Z,97322.72
2022-08-05T13:35:43.101Z,97310.97
2022-08-05T13:38:31.170Z,97298.44
2022-08-05T13:41:04.846Z,97294.66
2022-08-05T13:43:45.689Z,97301.22
2022-08-05T13:46:43.836Z,97305.59
2022-08-05T13:49:12.724Z,97302.31
2022-08-05T13:51:46.110Z,97303.31
2022-08-05T13:54:20.983Z,97305.25
2022-08-05T13:56:53.759Z,97302.00
2022-08-05T13:59:24.217Z,97299.72
2022-08-05T14:01:58.242Z,97299.72
2022-08-05T14:04:50.348Z,97300.88
2022-08-05T14:07:56.290Z,97293.53
2022-08-05T14:10:19.270Z,97299.63
2022-08-05T14:12:57.966Z,97299.81
2022-08-05T14:16:08.431Z,97302.81
2022-08-05T14:18:17.443Z,97304.50
2022-08-05T14:20:48.609Z,97300.63
2022-08-05T14:23:19.097Z,97293.16
2022-08-05T14:25:57.981Z,97297.59
2022-08-05T14:28:28.464Z,97293.91
2022-08-05T14:30:57.215Z,97295.72
2022-08-05T14:33:25.594Z,97284.81
2022-08-05T14:35:54.929Z,97284.69
2022-08-05T14:38:31.884Z,97288.78
2022-08-05T14:41:06.156Z,97281.81
2022-08-05T14:43:57.500Z,97281.38
2022-08-05T14:46:28.828Z,97272.06
2022-08-05T14:49:03.515Z,97268.34
2022-08-05T14:51:37.710Z,97268.22
2022-08-05T14:54:28.002Z,97269.34
2022-08-05T14:56:57.444Z,97267.56
2022-08-05T14:59:29.794Z,97251.97
2022-08-05T15:02:15.843Z,97244.31
2022-08-05T15:04:47.655Z,97235.91
2022-08-05T15:08:08.738Z,97249.06
2022-08-05T15:10:05.849Z,97250.34
2022-08-05T15:13:00.525Z,97243.31
2022-08-05T15:15:54.929Z,97248.84
2022-08-05T15:18:17.297Z,97251.63
2022-08-05T15:20:46.033Z,97249.19
2022-08-05T15:23:15.688Z,97260.25
2022-08-05T15:25:52.362Z,97267.28
2022-08-05T15:28:27.631Z,97258.50
2022-08-05T15:30:56.548Z,97261.75
2022-08-05T15:34:05.812Z,97267.28
2022-08-05T15:36:16.807Z,97277.53
2022-08-05T15:38:46.873Z,97281.28
2022-08-05T15:41:21.428Z,97279.31
2022-08-05T15:43:55.058Z,97289.38
2022-08-05T15:46:25.109Z,97287.44
2022-08-05T15:49:00.703Z,97285.16
2022-08-05T15:52:03.838Z,97275.41
2022-08-05T15:54:35.166Z,97271.34
2022-08-05T15:57:07.367Z,97281.13
2022-08-05T15:59:38.447Z,97267.47
2022-08-05T16:02:09.601Z,97268.78
2022-08-05T16:04:43.944Z,97270.94
2022-08-05T16:07:13.302Z,97264.44
2022-08-05T16:09:43.455Z,97265.41
2022-08-05T16:12:12.328Z,97256.00
2022-08-05T16:14:42.149Z,97260.25
2022-08-05T16:17:12.740Z,97256.03
2022-08-05T16:20:05.217Z,97260.25
2022-08-05T16:22:34.464Z,97266.47
2022-08-05T16:25:09.905Z,97260.13
2022-08-05T16:27:59.791Z,97267.59
2022-08-05T16:30:30.734Z,97255.59
2022-08-05T16:33:01.401Z,97267.44
2022-08-05T16:35:32.488Z,97266.31
2022-08-05T16:38:23.707Z,97267.13
2022-08-05T16:40:59.507Z,97262.72
2022-08-05T16:43:31.809Z,97266.97
2022-08-05T16:46:23.555Z,97263.84
2022-08-05T16:48:52.043Z,97263.06
2022-08-05T16:51:21.575Z,97270.69
2022-08-05T16:54:03.458Z,97266.66
2022-08-05T16:56:35.354Z,97271.22
2022-08-05T16:59:09.017Z,97273.03
2022-08-05T17:01:53.909Z,97268.94
2022-08-05T17:04:27.324Z,97271.56
2022-08-05T17:07:00.931Z,97276.13
2022-08-05T17:09:38.965Z,97273.53
2022-08-05T17:12:22.691Z,97275.16
2022-08-05T17:15:09.256Z,97275.13
2022-08-05T17:17:42.166Z,97282.78
2022-08-05T17:20:14.971Z,97283.28
2022-08-05T17:22:45.063Z,97282.47
2022-08-05T17:25:33.532Z,97281.31
2022-08-05T17:28:01.988Z,97283.22
2022-08-05T17:30:30.676Z,97283.50
2022-08-05T17:33:00.416Z,97282.72
2022-08-05T17:35:32.525Z,97281.06
2022-08-05T17:38:18.289Z,97286.38
2022-08-05T17:40:47.701Z,97299.28
2022-08-05T17:43:18.040Z,97299.59
2022-08-05T17:46:06.788Z,97295.16
2022-08-05T17:48:40.125Z,97293.69
2022-08-05T17:51:11.599Z,97295.25
2022-08-05T17:53:42.372Z,97301.69
2022-08-05T17:56:11.705Z,97293.91
2022-08-05T17:58:40.993Z,97303.13
2022-08-05T18:01:10.273Z,97307.13
2022-08-05T18:03:58.444Z,97297.69
2022-08-05T18:06:29.416Z,97299.25
2022-08-05T18:08:59.660Z,97293.69
2022-08-05T18:11:32.857Z,97301.22
2022-08-05T18:14:04.278Z,97305.53
2022-08-05T18:16:35.217Z,97304.97
2022-08-05T18:19:16.808Z,97310.75
2022-08-05T18:22:09.010Z,97315.19
2022-08-05T18:24:33.661Z,97322.84
2022-08-05T18:27:02.020Z,97321.41
2022-08-05T18:29:39.976Z,97320.03
2022-08-05T18:32:12.620Z,97322.19
2022-08-05T18:34:43.201Z,97326.75
2022-08-05T18:37:12.339Z,97328.06
2022-08-05T18:40:29.564Z,97329.91
2022-08-05T18:42:29.700Z,97338.97
2022-08-05T18:44:58.080Z,97347.38
2022-08-05T18:47:28.487Z,97338.81
2022-08-05T18:50:18.475Z,97344.78
2022-08-05T18:52:51.029Z,97340.06
2022-08-05T18:55:20.396Z,97350.09
2022-08-05T18:57:53.187Z,97348.84
2022-08-05T19:00:31.307Z,97345.13
2022-08-05T19:03:03.552Z,97349.38
2022-08-05T19:06:11.984Z,97346.50
2022-08-05T19:08:30.520Z,97344.44
2022-08-05T19:11:02.819Z,97341.50
2022-08-05T19:13:36.145Z,97343.81
2022-08-05T19:16:25.139Z,97348.03
2022-08-05T19:18:56.441Z,97349.00
2022-08-05T19:21:34.370Z,97355.41
2022-08-05T19:24:08.929Z,97354.72
2022-08-05T19:26:54.947Z,97361.34
2022-08-05T19:29:36.340Z,97360.38
2022-08-05T19:32:11.217Z,97370.06
2022-08-05T19:34:40.082Z,97365.75
2022-08-05T19:37:11.285Z,97371.28
2022-08-05T19:39:45.922Z,97374.59
2022-08-05T19:42:19.644Z,97360.72
2022-08-05T19:45:06.522Z,97365.19
2022-08-05T19:50:03.298Z,97377.13
2022-08-05T19:52:33.119Z,97380.44
2022-08-05T19:55:06.869Z,97377.75
2022-08-05T19:57:48.900Z,97382.69
2022-08-05T20:00:25.546Z,97381.66
2022-08-05T20:02:54.257Z,97378.69
2022-08-05T20:05:24.702Z,97390.50
2022-08-05T20:07:58.937Z,97386.41
2022-08-05T20:10:27.665Z,97388.91
2022-08-05T20:12:57.352Z,97398.50
2022-08-05T20:15:52.702Z,97399.34
2022-08-05T20:18:33.186Z,97403.75
2022-08-05T20:21:04.427Z,97403.00
2022-08-05T20:23:39.602Z,97406.59
2022-08-05T20:26:20.626Z,97401.41
2022-08-05T20:28:51.477Z,97401.97
2022-08-05T20:31:36.794Z,97403.91
2022-08-05T20:34:12.544Z,97394.34
2022-08-05T20:36:43.458Z,97392.19
2022-08-05T20:39:16.657Z,97393.84
2022-08-05T20:41:47.715Z,97394.44
2022-08-05T20:44:30.129Z,97396.09
2022-08-05T20:47:01.023Z,97405.97
2022-08-05T20:49:29.457Z,97419.13
2022-08-05T20:52:01.549Z,97424.31
2022-08-05T20:54:43.052Z,97428.19
2022-08-05T20:57:25.063Z,97447.34
2022-08-05T21:00:40.351Z,97465.44
2022-08-05T21:03:06.301Z,97518.59
2022-08-05T21:05:54.762Z,97548.19
2022-08-05T21:08:32.891Z,97582.94
2022-08-05T21:11:12.758Z,97599.09
2022-08-05T21:13:55.590Z,97582.97
2022-08-05T21:16:29.429Z,97594.19
2022-08-05T21:19:00.932Z,97608.06
2022-08-05T21:21:43.665Z,97632.03
2022-08-05T21:24:15.694Z,97647.25
2022-08-05T21:26:53.480Z,97685.38
2022-08-05T21:29:32.033Z,97705.66
2022-08-05T21:32:02.415Z,97713.75
2022-08-05T21:34:31.717Z,97718.53
2022-08-05T21:37:01.855Z,97724.34
2022-08-05T21:39:31.011Z,97725.56
2022-08-05T21:42:05.226Z,97723.53
2022-08-05T21:44:34.007Z,97722.78
2022-08-05T21:47:02.795Z,97745.91
2022-08-05T21:50:00.473Z,97741.94
2022-08-05T21:52:27.647Z,97762.47
2022-08-05T21:55:06.444Z,97768.03
2022-08-05T21:57:37.700Z,97779.06
2022-08-05T22:00:14.060Z,97776.38
2022-08-05T22:02:43.652Z,97780.34
2022-08-05T22:05:13.093Z,97794.16
2022-08-05T22:07:59.216Z,97795.06
2022-08-05T22:10:31.126Z,97803.16
2022-08-05T22:14:04.858Z,97799.22
2022-08-05T22:16:01.660Z,97788.13
2022-08-05T22:18:36.489Z,97795.41
2022-08-05T22:21:19.535Z,97800.97
2022-08-05T22:24:09.115Z,97805.75
2022-08-05T22:26:59.205Z,97800.44
2022-08-05T22:29:30.688Z,97803.09
2022-08-05T22:32:02.759Z,97789.16
2022-08-05T22:34:32.719Z,97777.38
2022-08-05T22:37:03.992Z,97771.59
2022-08-05T22:39:34.678Z,97761.69
2022-08-05T22:42:11.097Z,97754.03
2022-08-05T22:44:53.580Z,97750.41
2022-08-05T22:47:30.084Z,97753.84
2022-08-05T22:50:19.698Z,97742.03
2022-08-05T22:52:51.378Z,97737.81
2022-08-05T22:55:22.410Z,97732.53
2022-08-05T22:57:52.151Z,97722.16
2022-08-05T23:00:23.699Z,97702.22
2022-08-05T23:02:53.527Z,97704.59
2022-08-05T23:05:23.168Z,97694.19
2022-08-05T23:07:52.087Z,97691.72
2022-08-05T23:10:23.959Z,97697.66
2022-08-05T23:12:55.013Z,97697.09
2022-08-05T23:15:27.063Z,97713.03
2022-08-05T23:18:02.298Z,97731.69
2022-08-05T23:20:33.850Z,97738.69
2022-08-05T23:23:08.518Z,97765.59
2022-08-05T23:25:52.816Z,97794.53
2022-08-05T23:28:28.994Z,97804.69
2022-08-05T23:31:15.667Z,97787.44
2022-08-05T23:34:04.396Z,97793.00
2022-08-05T23:36:39.942Z,97799.16
2022-08-05T23:39:16.604Z,97794.44
2022-08-05T23:41:56.273Z,97796.78
2022-08-05T23:44:28.054Z,97798.34
2022-08-05T23:47:02.458Z,97801.53
2022-08-05T23:49:39.330Z,97804.69
2022-08-05T23:52:30.542Z,97795.38
2022-08-05T23:55:02.426Z,97793.13
2022-08-05T23:57:34.103Z,97793.38
